Terminal Aerodrome Forecast
Issued by NWS Caribou, ME

Home | Current Version | Previous Version | Text Only | Print | Product List | Glossary On
Versions: 1 2 3 4 5 6 7 8 9 10 11 12 13 14 15 16 17 18 19
000
FTUS41 KCAR 242322
TAFBGR
TAF
KBGR 242322Z 2500/2524 17005KT P6SM BKN012
     FM250400 00000KT P6SM OVC005
     FM251200 VRB03KT P6SM BKN008
     FM251400 21004KT P6SM BKN015
     FM251600 21006KT P6SM BKN025
     FM251800 20007KT P6SM SCT035
     FM252100 20008KT P6SM VCSH BKN045=

USA.gov is the U.S. government's official web portal to all federal, state and local government web resources and services.